createdAt,value
2018-09-28T00:00:46.945Z,16.67
2018-09-28T00:03:17.891Z,15.00
2018-09-28T00:05:48.071Z,17.00
2018-09-28T00:08:18.475Z,14.67
2018-09-28T00:10:48.864Z,15.00
2018-09-28T00:13:19.293Z,15.00
2018-09-28T00:15:48.851Z,17.67
2018-09-28T00:18:18.849Z,15.67
2018-09-28T00:20:48.478Z,15.00
2018-09-28T00:23:19.239Z,17.00
2018-09-28T00:25:50.637Z,15.00
2018-09-28T00:28:22.148Z,17.67
2018-09-28T00:30:52.517Z,18.00
2018-09-28T00:33:22.223Z,18.33
2018-09-28T00:35:53.477Z,16.67
2018-09-28T00:38:23.565Z,16.67
2018-09-28T00:40:53.139Z,16.67
2018-09-28T00:43:23.003Z,16.67
2018-09-28T00:45:52.537Z,18.00
2018-09-28T00:48:22.044Z,19.67
2018-09-28T00:50:51.998Z,20.33
2018-09-28T00:53:21.484Z,17.67
2018-09-28T00:55:51.032Z,20.67
2018-09-28T00:58:20.625Z,18.00
2018-09-28T01:00:50.185Z,16.33
2018-09-28T01:03:20.006Z,20.00
2018-09-28T01:05:49.537Z,17.33
2018-09-28T01:08:19.164Z,22.33
2018-09-28T01:10:49.004Z,19.33
2018-09-28T01:13:18.680Z,23.33
2018-09-28T01:15:48.259Z,19.00
2018-09-28T01:18:17.724Z,20.00
2018-09-28T01:20:47.466Z,19.33
2018-09-28T01:23:17.447Z,20.00
2018-09-28T01:25:46.904Z,18.67
2018-09-28T01:28:16.899Z,17.67
2018-09-28T01:30:46.418Z,20.00
2018-09-28T01:33:16.150Z,18.67
2018-09-28T01:35:46.018Z,20.33
2018-09-28T01:38:15.572Z,16.33
2018-09-28T01:40:45.115Z,19.67
2018-09-28T01:43:14.594Z,24.33
2018-09-28T01:45:44.220Z,19.33
2018-09-28T01:48:14.025Z,23.33
2018-09-28T01:50:43.628Z,23.67
2018-09-28T01:53:13.622Z,20.00
2018-09-28T01:55:43.453Z,18.67
2018-09-28T01:58:12.915Z,19.67
2018-09-28T02:00:43.108Z,17.67
2018-09-28T02:03:14.090Z,21.33
2018-09-28T02:05:43.988Z,20.67
2018-09-28T02:08:14.609Z,18.67
2018-09-28T02:10:44.940Z,21.00
2018-09-28T02:13:14.513Z,21.33
2018-09-28T02:15:44.114Z,19.00
2018-09-28T02:18:13.880Z,19.67
2018-09-28T02:20:43.833Z,19.00
2018-09-28T02:23:13.378Z,20.67
2018-09-28T02:25:42.851Z,22.00
2018-09-28T02:28:12.350Z,16.00
2018-09-28T02:30:41.875Z,20.67
2018-09-28T02:33:11.779Z,22.00
2018-09-28T02:35:41.330Z,19.67
2018-09-28T02:38:10.806Z,20.00
2018-09-28T02:40:40.811Z,19.00
2018-09-28T02:43:12.424Z,18.67
2018-09-28T02:45:41.870Z,20.67
2018-09-28T02:48:11.428Z,20.00
2018-09-28T02:50:41.112Z,18.67
2018-09-28T02:53:15.246Z,20.67
2018-09-28T02:55:45.136Z,19.00
2018-09-28T02:58:15.501Z,20.33
2018-09-28T03:00:45.564Z,18.00
2018-09-28T03:03:15.317Z,18.67
2018-09-28T03:05:47.512Z,19.00
2018-09-28T03:08:17.039Z,18.33
2018-09-28T03:10:46.852Z,19.67
2018-09-28T03:13:16.679Z,18.00
2018-09-28T03:15:48.074Z,20.00
2018-09-28T03:18:18.085Z,17.00
2018-09-28T03:20:47.865Z,19.67
2018-09-28T03:23:21.634Z,18.33
2018-09-28T03:25:51.199Z,18.33
2018-09-28T03:28:20.849Z,19.67
2018-09-28T03:30:50.382Z,19.00
2018-09-28T03:33:23.609Z,18.33
2018-09-28T03:35:54.048Z,20.67
2018-09-28T03:38:23.591Z,20.33
2018-09-28T03:40:53.475Z,17.00
2018-09-28T03:43:23.390Z,19.33
2018-09-28T03:45:53.133Z,21.00
2018-09-28T03:48:23.981Z,19.00
2018-09-28T03:50:53.661Z,17.67
2018-09-28T03:53:23.182Z,18.00
2018-09-28T03:55:53.004Z,19.00
2018-09-28T03:58:22.617Z,17.67
2018-09-28T04:00:52.665Z,19.33
2018-09-28T04:03:23.214Z,17.33
2018-09-28T04:05:52.831Z,21.00
2018-09-28T04:08:23.491Z,17.67
2018-09-28T04:10:53.380Z,18.33
2018-09-28T04:13:23.075Z,19.33
2018-09-28T04:15:52.977Z,18.67
2018-09-28T04:18:22.522Z,16.00
2018-09-28T04:20:52.021Z,20.33
2018-09-28T04:23:21.612Z,19.00
2018-09-28T04:25:52.097Z,18.33
2018-09-28T04:28:22.360Z,21.00
2018-09-28T04:30:51.873Z,21.00
2018-09-28T04:33:21.433Z,16.67
2018-09-28T04:35:51.814Z,19.67
2018-09-28T04:38:21.567Z,20.00
2018-09-28T04:40:51.096Z,19.67
2018-09-28T04:43:21.280Z,19.67
2018-09-28T04:45:52.862Z,19.33
2018-09-28T04:48:22.386Z,20.00
2018-09-28T04:50:53.714Z,19.00
2018-09-28T04:53:23.456Z,18.00
2018-09-28T04:55:53.694Z,18.00
2018-09-28T04:58:24.397Z,18.67
2018-09-28T05:00:53.884Z,19.33
2018-09-28T05:03:23.522Z,20.67
2018-09-28T05:05:53.601Z,18.33
2018-09-28T05:08:26.602Z,18.00
2018-09-28T05:10:56.402Z,18.67
2018-09-28T05:13:27.941Z,20.33
2018-09-28T05:15:58.075Z,21.33
2018-09-28T05:18:27.671Z,19.67
2018-09-28T05:20:58.206Z,18.00
2018-09-28T05:23:29.632Z,21.00
2018-09-28T05:25:59.247Z,19.67
2018-09-28T05:28:28.883Z,19.67
2018-09-28T05:30:58.915Z,17.33
2018-09-28T05:33:28.559Z,20.67
2018-09-28T05:35:58.227Z,18.67
2018-09-28T05:38:28.548Z,16.67
2018-09-28T05:40:58.148Z,16.00
2018-09-28T05:43:27.907Z,19.33
2018-09-28T05:45:58.095Z,18.33
2018-09-28T05:48:27.694Z,17.33
2018-09-28T05:50:58.405Z,19.67
2018-09-28T05:53:28.293Z,19.67
2018-09-28T05:55:58.053Z,18.00
2018-09-28T05:58:33.196Z,21.67
2018-09-28T06:01:08.338Z,19.67
2018-09-28T06:03:41.867Z,19.33
2018-09-28T06:06:12.652Z,20.67
2018-09-28T06:08:42.701Z,20.00
2018-09-28T06:11:12.575Z,21.00
2018-09-28T06:13:45.701Z,18.67
2018-09-28T06:16:15.376Z,15.33
2018-09-28T06:18:46.826Z,17.67
2018-09-28T06:21:16.551Z,17.67
2018-09-28T06:23:46.085Z,19.00
2018-09-28T06:26:16.028Z,20.33
2018-09-28T06:28:45.614Z,17.00
2018-09-28T06:31:15.784Z,21.33
2018-09-28T06:33:46.639Z,17.00
2018-09-28T06:36:16.642Z,20.00
2018-09-28T06:38:47.368Z,18.00
2018-09-28T06:41:16.968Z,21.67
2018-09-28T06:43:47.792Z,20.00
2018-09-28T06:46:17.931Z,20.00
2018-09-28T06:48:49.017Z,18.00
2018-09-28T06:51:19.746Z,21.67
2018-09-28T06:53:49.912Z,20.67
2018-09-28T06:56:21.252Z,20.67
2018-09-28T06:58:51.178Z,21.67
2018-09-28T07:01:21.468Z,23.00
2018-09-28T07:03:51.506Z,20.67
2018-09-28T07:06:22.816Z,20.00
2018-09-28T07:08:52.875Z,20.67
2018-09-28T07:11:22.503Z,21.00
2018-09-28T07:13:54.333Z,22.33
2018-09-28T07:16:24.053Z,19.67
2018-09-28T07:18:53.880Z,24.33
2018-09-28T07:21:23.507Z,22.00
2018-09-28T07:23:53.259Z,23.67
2018-09-28T07:26:22.962Z,23.67
2018-09-28T07:28:56.340Z,21.33
2018-09-28T07:31:28.068Z,27.33
2018-09-28T07:33:58.389Z,28.00
2018-09-28T07:36:29.530Z,23.00
2018-09-28T07:39:02.567Z,25.33
2018-09-28T07:41:32.231Z,26.33
2018-09-28T07:44:02.458Z,25.33
2018-09-28T07:46:32.210Z,22.33
2018-09-28T07:49:03.146Z,29.67
2018-09-28T07:51:36.371Z,26.33
2018-09-28T07:54:14.334Z,28.33
2018-09-28T07:56:45.779Z,26.67
2018-09-28T07:59:17.082Z,28.67
2018-09-28T08:01:46.881Z,26.00
2018-09-28T08:04:17.727Z,27.67
2018-09-28T08:06:50.017Z,28.00
2018-09-28T08:09:20.756Z,28.00
2018-09-28T08:11:51.674Z,30.67
2018-09-28T08:14:21.991Z,30.33
2018-09-28T08:16:56.350Z,29.67
2018-09-28T08:19:31.571Z,29.00
2018-09-28T08:22:03.064Z,30.33
2018-09-28T08:24:35.440Z,30.33
2018-09-28T08:27:05.379Z,29.67
2018-09-28T08:29:35.638Z,34.33
2018-09-28T08:32:05.542Z,32.33
2018-09-28T08:34:36.478Z,30.67
2018-09-28T08:37:08.116Z,31.00
2018-09-28T08:39:40.978Z,31.67
2018-09-28T08:42:11.557Z,30.00
2018-09-28T08:44:43.068Z,32.00
2018-09-28T08:47:13.715Z,30.00
2018-09-28T08:49:45.290Z,35.67
2018-09-28T08:52:18.965Z,31.33
2018-09-28T08:54:51.495Z,29.33
2018-09-28T08:57:22.943Z,30.00
2018-09-28T08:59:54.223Z,29.67
2018-09-28T09:02:24.367Z,28.33
2018-09-28T09:04:55.653Z,26.33
2018-09-28T09:07:27.247Z,29.33
2018-09-28T09:09:59.980Z,31.00
2018-09-28T09:12:30.480Z,30.67
2018-09-28T09:15:09.150Z,28.00
2018-09-28T09:17:41.279Z,30.00
2018-09-28T09:20:13.002Z,30.67
2018-09-28T09:22:43.755Z,28.00
2018-09-28T09:25:14.697Z,33.67
2018-09-28T09:27:48.908Z,30.67
2018-09-28T09:30:21.649Z,29.33
2018-09-28T09:32:51.581Z,29.67
2018-09-28T09:35:24.878Z,32.67
2018-09-28T09:37:57.051Z,32.00
2018-09-28T09:40:29.894Z,30.33
2018-09-28T09:43:00.168Z,29.67
2018-09-28T09:45:30.618Z,30.00
2018-09-28T09:48:00.392Z,29.00
2018-09-28T09:50:31.591Z,28.00
2018-09-28T09:53:02.267Z,28.00
2018-09-28T09:55:33.129Z,26.33
2018-09-28T09:58:03.267Z,28.67
2018-09-28T10:00:38.211Z,30.00
2018-09-28T10:03:14.935Z,31.33
2018-09-28T10:05:44.830Z,33.00
2018-09-28T10:08:16.364Z,26.67
2018-09-28T10:10:50.728Z,28.00
2018-09-28T10:13:20.461Z,29.67
2018-09-28T10:15:52.344Z,27.33
2018-09-28T10:18:28.124Z,24.00
2018-09-28T10:20:59.581Z,23.33
2018-09-28T10:23:35.658Z,20.33
2018-09-28T10:26:08.315Z,19.00
2018-09-28T10:28:56.535Z,19.33
2018-09-28T10:31:32.881Z,18.00
2018-09-28T10:34:02.864Z,15.67
2018-09-28T10:36:36.231Z,18.33
2018-09-28T10:39:08.705Z,19.67
2018-09-28T10:41:39.740Z,22.33
2018-09-28T10:44:10.145Z,20.00
2018-09-28T10:46:41.469Z,21.00
2018-09-28T10:49:12.315Z,19.00
2018-09-28T10:51:49.298Z,21.33
2018-09-28T10:54:31.720Z,17.33
2018-09-28T10:57:04.896Z,14.33
2018-09-28T10:59:43.272Z,16.00
2018-09-28T11:02:23.005Z,17.67
2018-09-28T11:04:57.451Z,14.67
2018-09-28T11:07:31.362Z,13.33
2018-09-28T11:10:11.512Z,13.00
2018-09-28T11:12:49.329Z,13.00
2018-09-28T11:15:22.778Z,12.00
2018-09-28T11:17:56.775Z,16.00
2018-09-28T11:20:36.171Z,17.67
2018-09-28T11:23:15.051Z,16.00
2018-09-28T11:25:47.904Z,12.33
2018-09-28T11:28:22.016Z,16.67
2018-09-28T11:30:52.270Z,16.67
2018-09-28T11:33:22.274Z,16.67
2018-09-28T11:35:54.219Z,15.67
2018-09-28T11:38:24.766Z,17.00
2018-09-28T11:40:54.740Z,19.00
2018-09-28T11:45:55.906Z,19.43
2018-09-28T11:48:27.687Z,21.67
2018-09-28T11:50:59.908Z,18.00
2018-09-28T11:53:31.215Z,17.00
2018-09-28T11:56:03.955Z,17.00
2018-09-28T11:58:34.429Z,16.00
2018-09-28T12:01:07.291Z,15.00
2018-09-28T12:03:40.234Z,14.00
2018-09-28T12:06:14.607Z,13.00
2018-09-28T12:08:44.469Z,12.67
2018-09-28T12:11:15.290Z,11.00
2018-09-28T12:13:48.416Z,11.33
2018-09-28T12:16:21.884Z,14.67
2018-09-28T12:18:53.478Z,12.67
2018-09-28T12:21:25.386Z,11.00
2018-09-28T12:23:57.566Z,11.00
2018-09-28T12:26:28.588Z,10.00
2018-09-28T12:28:59.406Z,7.67
2018-09-28T12:31:29.297Z,12.00
2018-09-28T12:33:59.670Z,11.33
2018-09-28T12:36:30.412Z,14.67
2018-09-28T12:39:02.815Z,16.33
2018-09-28T12:41:33.291Z,16.00
2018-09-28T12:44:04.484Z,16.00
2018-09-28T12:46:34.471Z,15.67
2018-09-28T12:49:06.681Z,17.00
2018-09-28T12:51:39.777Z,17.67
2018-09-28T12:54:12.775Z,18.67
2018-09-28T12:56:44.451Z,19.00
2018-09-28T12:59:16.446Z,19.00
2018-09-28T13:01:48.216Z,20.00
2018-09-28T13:04:21.317Z,21.33
2018-09-28T13:06:51.532Z,19.33
2018-09-28T13:09:22.298Z,22.67
2018-09-28T13:11:58.739Z,22.33
2018-09-28T13:14:28.837Z,21.00
2018-09-28T13:16:59.433Z,21.00
2018-09-28T13:19:32.290Z,18.00
2018-09-28T13:22:06.626Z,18.67
2018-09-28T13:24:36.641Z,18.00
2018-09-28T13:27:07.166Z,20.00
2018-09-28T13:29:39.696Z,21.00
2018-09-28T13:32:11.258Z,17.00
2018-09-28T13:34:43.842Z,22.33
2018-09-28T13:37:13.813Z,24.67
2018-09-28T13:39:45.292Z,24.00
2018-09-28T13:42:15.777Z,22.00
2018-09-28T13:44:46.063Z,25.00
2018-09-28T13:47:16.365Z,23.67
2018-09-28T13:49:46.871Z,22.67
2018-09-28T13:52:17.403Z,26.67
2018-09-28T13:54:47.808Z,23.67
2018-09-28T13:57:19.804Z,23.67
2018-09-28T13:59:53.312Z,21.00
2018-09-28T14:02:23.269Z,18.33
2018-09-28T14:05:03.450Z,21.67
2018-09-28T14:07:33.873Z,22.67
2018-09-28T14:10:07.574Z,21.00
2018-09-28T14:12:39.329Z,26.00
2018-09-28T14:15:15.450Z,25.00
2018-09-28T14:17:47.756Z,29.00
2018-09-28T14:20:21.486Z,25.33
2018-09-28T14:22:51.546Z,24.67
2018-09-28T14:25:23.032Z,20.67
2018-09-28T14:27:52.986Z,19.00
2018-09-28T14:30:24.477Z,19.67
2018-09-28T14:32:54.313Z,20.00
2018-09-28T14:35:26.071Z,14.00
2018-09-28T14:37:59.021Z,14.00
2018-09-28T14:40:31.454Z,13.67
2018-09-28T14:43:02.091Z,13.00
2018-09-28T14:45:33.451Z,11.33
2018-09-28T14:48:05.377Z,13.00
2018-09-28T14:50:38.908Z,10.00
2018-09-28T14:53:09.036Z,13.00
2018-09-28T14:55:39.630Z,13.00
2018-09-28T14:58:11.574Z,10.00
2018-09-28T15:00:42.062Z,10.33
2018-09-28T15:03:13.414Z,11.75
2018-09-28T15:05:45.242Z,9.80
2018-09-28T15:08:16.813Z,9.33
2018-09-28T15:10:48.048Z,7.33
2018-09-28T15:13:24.780Z,8.00
2018-09-28T15:15:55.400Z,10.00
2018-09-28T15:18:27.629Z,11.00
2018-09-28T15:24:27.767Z,7.67
2018-09-28T15:27:02.178Z,7.00
2018-09-28T15:29:36.130Z,10.00
2018-09-28T15:32:07.055Z,7.33
2018-09-28T15:34:38.596Z,7.00
2018-09-28T15:37:11.947Z,8.00
2018-09-28T15:39:44.167Z,10.00
2018-09-28T15:42:15.267Z,8.00
2018-09-28T15:44:52.568Z,7.40
2018-09-28T15:47:23.595Z,7.67
2018-09-28T15:49:55.947Z,5.40
2018-09-28T15:52:27.804Z,7.80
2018-09-28T15:54:59.499Z,7.00
2018-09-28T15:57:31.929Z,7.00
2018-09-28T16:00:05.862Z,4.00
2018-09-28T16:02:38.214Z,7.20
2018-09-28T16:05:09.607Z,7.20
2018-09-28T16:07:43.561Z,5.20
2018-09-28T16:10:17.691Z,5.00
2018-09-28T16:12:50.241Z,4.00
2018-09-28T16:15:28.637Z,4.60
2018-09-28T16:18:04.469Z,4.80
2018-09-28T16:20:36.314Z,4.00
2018-09-28T16:23:08.490Z,4.00
2018-09-28T16:25:41.539Z,3.20
2018-09-28T16:28:17.833Z,4.80
2018-09-28T16:30:49.331Z,4.00
2018-09-28T16:33:21.184Z,2.40
2018-09-28T16:35:53.944Z,4.80
2018-09-28T16:38:26.628Z,4.00
2018-09-28T16:40:59.838Z,2.80
2018-09-28T16:43:31.943Z,4.00
2018-09-28T16:46:04.403Z,4.20
2018-09-28T16:48:42.770Z,4.40
2018-09-28T16:51:15.336Z,4.00
2018-09-28T16:53:48.183Z,4.00
2018-09-28T16:56:21.702Z,4.20
2018-09-28T16:58:56.030Z,3.60
2018-09-28T17:01:30.954Z,3.60
2018-09-28T17:04:02.600Z,4.20
2018-09-28T17:06:34.937Z,2.40
2018-09-28T17:09:09.891Z,4.00
2018-09-28T17:11:41.759Z,4.00
2018-09-28T17:14:14.802Z,2.00
2018-09-28T17:16:54.536Z,2.60
2018-09-28T17:19:27.732Z,3.40
2018-09-28T17:22:01.280Z,2.00
2018-09-28T17:24:33.955Z,4.00
2018-09-28T17:27:05.731Z,2.80
2018-09-28T17:29:37.385Z,4.00
2018-09-28T17:32:10.203Z,3.60
2018-09-28T17:34:44.123Z,4.00
2018-09-28T17:37:20.162Z,3.60
2018-09-28T17:39:51.573Z,3.60
2018-09-28T17:42:22.985Z,5.00
2018-09-28T17:44:54.686Z,2.00
2018-09-28T17:47:26.893Z,3.20
2018-09-28T17:50:01.441Z,4.00
2018-09-28T17:52:34.294Z,4.00
2018-09-28T17:55:06.379Z,3.20
2018-09-28T17:57:38.238Z,4.20
2018-09-28T18:00:09.765Z,4.00
2018-09-28T18:02:42.142Z,4.40
2018-09-28T18:05:15.337Z,3.60
2018-09-28T18:07:50.878Z,4.40
2018-09-28T18:10:22.620Z,4.00
2018-09-28T18:15:25.312Z,5.40
2018-09-28T18:17:57.805Z,5.00
2018-09-28T18:20:31.057Z,5.60
2018-09-28T18:23:04.710Z,4.00
2018-09-28T18:25:37.625Z,4.20
2018-09-28T18:28:42.294Z,5.80
2018-09-28T18:31:14.575Z,5.40
2018-09-28T18:33:47.524Z,5.80
2018-09-28T18:36:20.454Z,6.60
2018-09-28T18:38:52.649Z,6.60
2018-09-28T18:41:25.785Z,4.00
2018-09-28T18:43:57.489Z,4.20
2018-09-28T18:49:16.836Z,5.40
2018-09-28T18:51:48.233Z,5.40
2018-09-28T18:54:19.640Z,6.00
2018-09-28T18:56:53.415Z,5.00
2018-09-28T18:59:27.340Z,4.80
2018-09-28T19:02:02.597Z,6.40
2018-09-28T19:04:34.435Z,5.40
2018-09-28T19:07:07.824Z,5.20
2018-09-28T19:09:40.888Z,6.40
2018-09-28T19:12:13.270Z,6.00
2018-09-28T19:14:45.610Z,7.00
2018-09-28T19:17:18.461Z,4.00
2018-09-28T19:19:51.337Z,6.20
2018-09-28T19:22:23.989Z,5.60
2018-09-28T19:24:55.829Z,6.00
2018-09-28T19:27:29.346Z,6.60
2018-09-28T19:30:04.676Z,5.20
2018-09-28T19:32:37.105Z,8.20
2018-09-28T19:35:08.610Z,6.00
2018-09-28T19:37:40.448Z,6.00
2018-09-28T19:40:12.848Z,6.00
2018-09-28T19:42:45.283Z,4.00
2018-09-28T19:45:22.583Z,4.00
2018-09-28T19:47:58.076Z,6.00
2018-09-28T19:50:32.900Z,9.00
2018-09-28T19:53:06.029Z,6.80
2018-09-28T19:55:38.421Z,6.00
2018-09-28T19:58:11.781Z,5.60
2018-09-28T20:00:44.847Z,6.00
2018-09-28T20:03:21.193Z,3.80
2018-09-28T20:05:54.531Z,4.40
2018-09-28T20:08:29.346Z,6.00
2018-09-28T20:11:04.552Z,6.00
2018-09-28T20:13:38.717Z,7.00
2018-09-28T20:16:13.262Z,4.80
2018-09-28T20:18:47.617Z,6.00
2018-09-28T20:21:38.584Z,4.00
2018-09-28T20:24:13.866Z,6.60
2018-09-28T20:26:47.027Z,6.00
2018-09-28T20:29:20.191Z,6.00
2018-09-28T20:31:51.649Z,6.40
2018-09-28T20:34:23.325Z,3.40
2018-09-28T20:36:57.364Z,3.60
2018-09-28T20:39:30.563Z,5.60
2018-09-28T20:42:02.999Z,4.00
2018-09-28T20:44:37.035Z,4.00
2018-09-28T20:47:08.783Z,5.20
2018-09-28T20:49:41.535Z,4.00
2018-09-28T20:52:18.166Z,5.60
2018-09-28T20:54:54.101Z,5.60
2018-09-28T20:57:26.182Z,4.40
2018-09-28T20:59:59.337Z,4.00
2018-09-28T21:02:31.672Z,5.33
2018-09-28T21:05:04.689Z,4.00
2018-09-28T21:07:38.148Z,3.00
2018-09-28T21:10:11.786Z,3.60
2018-09-28T21:12:45.679Z,4.00
2018-09-28T21:15:20.442Z,4.00
2018-09-28T21:17:52.978Z,4.00
2018-09-28T21:20:25.546Z,3.00
2018-09-28T21:22:57.028Z,4.00
2018-09-28T21:25:28.722Z,4.00
2018-09-28T21:28:00.628Z,4.00
2018-09-28T21:30:36.917Z,3.80
2018-09-28T21:33:09.658Z,3.60
2018-09-28T21:35:43.057Z,5.60
2018-09-28T21:38:16.095Z,4.40
2018-09-28T21:40:53.448Z,3.80
2018-09-28T21:43:25.082Z,3.00
2018-09-28T21:45:56.626Z,3.00
2018-09-28T21:48:27.994Z,3.60
2018-09-28T21:51:01.142Z,3.00
2018-09-28T21:53:32.509Z,5.20
2018-09-28T21:56:05.312Z,3.60
2018-09-28T21:58:39.001Z,3.00
2018-09-28T22:01:15.637Z,5.20
2018-09-28T22:03:48.346Z,3.00
2018-09-28T22:06:21.474Z,6.00
2018-09-28T22:08:53.525Z,3.40
2018-09-28T22:11:24.817Z,3.00
2018-09-28T22:13:56.605Z,4.00
2018-09-28T22:18:51.734Z,3.60
2018-09-28T22:21:26.810Z,3.00
2018-09-28T22:24:01.877Z,3.00
2018-09-28T22:26:35.479Z,3.20
2018-09-28T22:29:07.888Z,3.20
2018-09-28T22:31:40.333Z,3.60
2018-09-28T22:34:13.400Z,2.20
2018-09-28T22:36:44.718Z,3.80
2018-09-28T22:39:18.407Z,3.20
2018-09-28T22:41:50.091Z,3.00
2018-09-28T22:44:22.133Z,3.00
2018-09-28T22:46:54.836Z,4.00
2018-09-28T22:49:26.445Z,3.00
2018-09-28T22:51:58.453Z,3.00
2018-09-28T22:54:29.817Z,4.00
2018-09-28T22:57:01.967Z,3.00
2018-09-28T22:59:33.211Z,2.20
2018-09-28T23:02:04.701Z,4.40
2018-09-28T23:04:39.116Z,2.20
2018-09-28T23:07:14.323Z,1.00
2018-09-28T23:09:47.145Z,3.00
2018-09-28T23:12:19.546Z,3.00
2018-09-28T23:14:51.898Z,1.00
2018-09-28T23:17:24.036Z,3.00
2018-09-28T23:19:55.765Z,1.80
2018-09-28T23:22:27.402Z,3.00
2018-09-28T23:25:01.089Z,3.00
2018-09-28T23:27:32.572Z,3.00
2018-09-28T23:30:05.836Z,2.60
2018-09-28T23:32:37.478Z,1.80
2018-09-28T23:35:08.709Z,3.20
2018-09-28T23:37:40.037Z,3.00
2018-09-28T23:40:12.402Z,3.00
2018-09-28T23:42:45.563Z,1.80
2018-09-28T23:45:25.692Z,3.00
2018-09-28T23:47:57.837Z,2.60
2018-09-28T23:50:30.531Z,3.00
2018-09-28T23:53:02.226Z,3.00
2018-09-28T23:55:33.504Z,1.00
2018-09-28T23:58:04.891Z,4.40
